sensor_id;sensor_type;location;lat;lon;timestamp;temperature;humidity
39345;DHT22;25061;51.954;6.996;2023-10-08T05:31:33;13.20;99.90
39345;DHT22;25061;51.954;6.996;2023-10-08T05:34:11;13.20;99.90
39345;DHT22;25061;51.954;6.996;2023-10-08T05:36:48;13.10;99.90
39345;DHT22;25061;51.954;6.996;2023-10-08T05:39:26;13.30;99.90
39345;DHT22;25061;51.954;6.996;2023-10-08T05:42:03;13.20;99.90
39345;DHT22;25061;51.954;6.996;2023-10-08T05:44:48;13.10;99.90
39345;DHT22;25061;51.954;6.996;2023-10-08T05:47:33;13.00;99.90
39345;DHT22;25061;51.954;6.996;2023-10-08T05:50:04;13.00;99.90
39345;DHT22;25061;51.954;6.996;2023-10-08T05:52:47;13.00;99.90
39345;DHT22;25061;51.954;6.996;2023-10-08T05:55:25;13.20;99.90
39345;DHT22;25061;51.954;6.996;2023-10-08T05:57:59;13.10;99.90
39345;DHT22;25061;51.954;6.996;2023-10-08T06:00:43;13.10;99.90
39345;DHT22;25061;51.954;6.996;2023-10-08T06:03:31;13.00;99.90
39345;DHT22;25061;51.954;6.996;2023-10-08T06:06:06;12.90;99.90
39345;DHT22;25061;51.954;6.996;2023-10-08T06:08:38;12.90;99.90
39345;DHT22;25061;51.954;6.996;2023-10-08T06:11:18;12.80;99.90
39345;DHT22;25061;51.954;6.996;2023-10-08T06:14:06;12.80;99.90
39345;DHT22;25061;51.954;6.996;2023-10-08T06:16:53;12.70;99.90
39345;DHT22;25061;51.954;6.996;2023-10-08T06:19:41;12.80;99.90
39345;DHT22;25061;51.954;6.996;2023-10-08T06:22:08;12.70;99.90
39345;DHT22;25061;51.954;6.996;2023-10-08T06:24:34;12.70;99.90
39345;DHT22;25061;51.954;6.996;2023-10-08T06:27:04;12.80;99.90
39345;DHT22;25061;51.954;6.996;2023-10-08T06:29:31;12.70;99.90
39345;DHT22;25061;51.954;6.996;2023-10-08T06:31:57;12.80;99.90
39345;DHT22;25061;51.954;6.996;2023-10-08T06:34:28;12.70;99.90
39345;DHT22;25061;51.954;6.996;2023-10-08T06:36:55;12.70;99.90
39345;DHT22;25061;51.954;6.996;2023-10-08T06:39:22;12.70;99.90
39345;DHT22;25061;51.954;6.996;2023-10-08T06:41:54;12.60;99.90
39345;DHT22;25061;51.954;6.996;2023-10-08T06:44:22;12.70;99.90
39345;DHT22;25061;51.954;6.996;2023-10-08T06:46:48;12.70;99.90
39345;DHT22;25061;51.954;6.996;2023-10-08T06:49:14;12.70;99.90
39345;DHT22;25061;51.954;6.996;2023-10-08T06:51:41;12.70;99.90
39345;DHT22;25061;51.954;6.996;2023-10-08T06:54:08;12.70;99.90
39345;DHT22;25061;51.954;6.996;2023-10-08T06:56:36;12.70;99.90
39345;DHT22;25061;51.954;6.996;2023-10-08T06:59:02;12.70;99.90
39345;DHT22;25061;51.954;6.996;2023-10-08T07:01:29;12.80;99.90
39345;DHT22;25061;51.954;6.996;2023-10-08T07:04:05;12.80;99.90
39345;DHT22;25061;51.954;6.996;2023-10-08T07:06:32;12.70;99.90
39345;DHT22;25061;51.954;6.996;2023-10-08T07:09:00;12.70;99.90
39345;DHT22;25061;51.954;6.996;2023-10-08T07:11:39;12.70;99.90
39345;DHT22;25061;51.954;6.996;2023-10-08T07:14:09;12.80;99.90
39345;DHT22;25061;51.954;6.996;2023-10-08T07:16:36;12.70;99.90
39345;DHT22;25061;51.954;6.996;2023-10-08T07:19:02;12.60;99.90
39345;DHT22;25061;51.954;6.996;2023-10-08T07:21:30;12.70;99.90
39345;DHT22;25061;51.954;6.996;2023-10-08T07:24:05;12.70;99.90
39345;DHT22;25061;51.954;6.996;2023-10-08T07:26:35;12.80;99.90
39345;DHT22;25061;51.954;6.996;2023-10-08T07:29:06;12.80;99.90
39345;DHT22;25061;51.954;6.996;2023-10-08T07:31:36;12.80;99.90
39345;DHT22;25061;51.954;6.996;2023-10-08T07:34:03;12.80;99.90
39345;DHT22;25061;51.954;6.996;2023-10-08T07:36:42;12.80;99.90
39345;DHT22;25061;51.954;6.996;2023-10-08T07:39:09;12.80;99.90
39345;DHT22;25061;51.954;6.996;2023-10-08T07:41:49;12.90;99.90
39345;DHT22;25061;51.954;6.996;2023-10-08T07:44:15;12.80;99.90
39345;DHT22;25061;51.954;6.996;2023-10-08T07:46:40;12.90;99.90
39345;DHT22;25061;51.954;6.996;2023-10-08T07:49:06;12.90;99.90
39345;DHT22;25061;51.954;6.996;2023-10-08T07:51:32;12.90;99.90
39345;DHT22;25061;51.954;6.996;2023-10-08T07:53:59;13.00;99.90
39345;DHT22;25061;51.954;6.996;2023-10-08T07:56:25;12.90;99.90
39345;DHT22;25061;51.954;6.996;2023-10-08T07:58:52;12.80;99.90
39345;DHT22;25061;51.954;6.996;2023-10-08T08:01:21;12.90;99.90
39345;DHT22;25061;51.954;6.996;2023-10-08T08:03:46;12.90;99.90
39345;DHT22;25061;51.954;6.996;2023-10-08T08:06:14;12.90;99.90
39345;DHT22;25061;51.954;6.996;2023-10-08T08:08:42;12.90;99.90
39345;DHT22;25061;51.954;6.996;2023-10-08T08:11:10;13.00;99.90
39345;DHT22;25061;51.954;6.996;2023-10-08T08:13:42;13.10;99.90
39345;DHT22;25061;51.954;6.996;2023-10-08T08:16:12;13.10;99.90
39345;DHT22;25061;51.954;6.996;2023-10-08T08:18:48;13.00;99.90
39345;DHT22;25061;51.954;6.996;2023-10-08T08:21:15;12.90;99.90
39345;DHT22;25061;51.954;6.996;2023-10-08T08:23:42;12.90;99.90
39345;DHT22;25061;51.954;6.996;2023-10-08T08:26:16;13.10;99.90
39345;DHT22;25061;51.954;6.996;2023-10-08T08:29:01;13.10;99.90
39345;DHT22;25061;51.954;6.996;2023-10-08T08:31:29;13.10;99.90
39345;DHT22;25061;51.954;6.996;2023-10-08T08:33:58;12.90;99.90
39345;DHT22;25061;51.954;6.996;2023-10-08T08:36:50;12.90;99.90
39345;DHT22;25061;51.954;6.996;2023-10-08T08:39:16;13.00;99.90
39345;DHT22;25061;51.954;6.996;2023-10-08T08:42:01;12.90;99.90
39345;DHT22;25061;51.954;6.996;2023-10-08T08:44:31;13.00;99.90
39345;DHT22;25061;51.954;6.996;2023-10-08T08:47:04;12.90;99.90
39345;DHT22;25061;51.954;6.996;2023-10-08T08:49:35;13.00;99.90
39345;DHT22;25061;51.954;6.996;2023-10-08T08:52:04;13.10;99.90
39345;DHT22;25061;51.954;6.996;2023-10-08T08:54:30;13.20;99.90
39345;DHT22;25061;51.954;6.996;2023-10-08T08:56:58;13.30;99.90
39345;DHT22;25061;51.954;6.996;2023-10-08T08:59:26;13.20;99.90
39345;DHT22;25061;51.954;6.996;2023-10-08T09:01:53;13.20;99.90
39345;DHT22;25061;51.954;6.996;2023-10-08T09:04:28;13.20;99.90
39345;DHT22;25061;51.954;6.996;2023-10-08T09:06:55;13.30;99.90
39345;DHT22;25061;51.954;6.996;2023-10-08T09:09:21;13.40;99.90
39345;DHT22;25061;51.954;6.996;2023-10-08T09:11:52;13.50;99.90
39345;DHT22;25061;51.954;6.996;2023-10-08T09:14:22;13.50;99.90
39345;DHT22;25061;51.954;6.996;2023-10-08T09:16:55;13.50;99.90
39345;DHT22;25061;51.954;6.996;2023-10-08T09:19:21;13.50;99.90
39345;DHT22;25061;51.954;6.996;2023-10-08T09:22:09;13.40;99.90
39345;DHT22;25061;51.954;6.996;2023-10-08T09:24:41;13.30;99.90
39345;DHT22;25061;51.954;6.996;2023-10-08T09:27:08;13.20;99.90
39345;DHT22;25061;51.954;6.996;2023-10-08T09:29:34;13.40;99.90
39345;DHT22;25061;51.954;6.996;2023-10-08T09:32:09;13.30;99.90
39345;DHT22;25061;51.954;6.996;2023-10-08T09:34:35;13.30;99.90
39345;DHT22;25061;51.954;6.996;2023-10-08T09:37:10;13.20;99.90
39345;DHT22;25061;51.954;6.996;2023-10-08T09:39:37;13.00;99.90
39345;DHT22;25061;51.954;6.996;2023-10-08T09:42:04;13.20;99.90
39345;DHT22;25061;51.954;6.996;2023-10-08T09:44:35;13.30;99.90
39345;DHT22;25061;51.954;6.996;2023-10-08T09:47:06;13.20;99.90
39345;DHT22;25061;51.954;6.996;2023-10-08T09:52:08;13.30;99.90
39345;DHT22;25061;51.954;6.996;2023-10-08T09:55:04;13.50;99.90
39345;DHT22;25061;51.954;6.996;2023-10-08T09:57:35;13.50;99.90
39345;DHT22;25061;51.954;6.996;2023-10-08T10:00:01;13.50;99.90
39345;DHT22;25061;51.954;6.996;2023-10-08T10:02:30;13.80;99.90
39345;DHT22;25061;51.954;6.996;2023-10-08T10:04:57;13.60;99.90
39345;DHT22;25061;51.954;6.996;2023-10-08T10:07:26;13.60;99.90
39345;DHT22;25061;51.954;6.996;2023-10-08T10:09:54;13.80;99.90
39345;DHT22;25061;51.954;6.996;2023-10-08T10:12:26;13.70;99.90
39345;DHT22;25061;51.954;6.996;2023-10-08T10:14:56;13.60;99.90
39345;DHT22;25061;51.954;6.996;2023-10-08T10:17:25;13.60;99.90
39345;DHT22;25061;51.954;6.996;2023-10-08T10:19:55;13.90;99.90
39345;DHT22;25061;51.954;6.996;2023-10-08T10:22:32;14.00;99.90
39345;DHT22;25061;51.954;6.996;2023-10-08T10:25:05;14.20;99.90
39345;DHT22;25061;51.954;6.996;2023-10-08T10:30:21;14.30;99.90
39345;DHT22;25061;51.954;6.996;2023-10-08T10:32:52;14.10;99.90
39345;DHT22;25061;51.954;6.996;2023-10-08T10:35:17;14.10;99.90
39345;DHT22;25061;51.954;6.996;2023-10-08T10:37:44;14.10;99.90
39345;DHT22;25061;51.954;6.996;2023-10-08T10:40:23;14.40;99.90
39345;DHT22;25061;51.954;6.996;2023-10-08T10:43:00;14.60;99.90
39345;DHT22;25061;51.954;6.996;2023-10-08T10:45:29;14.30;99.90
39345;DHT22;25061;51.954;6.996;2023-10-08T10:48:13;14.20;99.90
39345;DHT22;25061;51.954;6.996;2023-10-08T10:50:40;14.40;99.90
39345;DHT22;25061;51.954;6.996;2023-10-08T10:53:25;14.50;99.90
39345;DHT22;25061;51.954;6.996;2023-10-08T10:55:53;14.10;99.90
39345;DHT22;25061;51.954;6.996;2023-10-08T10:58:35;14.20;99.90
39345;DHT22;25061;51.954;6.996;2023-10-08T11:01:07;14.90;99.90
39345;DHT22;25061;51.954;6.996;2023-10-08T11:04:06;15.10;99.90
39345;DHT22;25061;51.954;6.996;2023-10-08T11:06:31;15.10;99.90
39345;DHT22;25061;51.954;6.996;2023-10-08T11:09:00;14.80;99.90
39345;DHT22;25061;51.954;6.996;2023-10-08T11:11:26;14.90;99.90
39345;DHT22;25061;51.954;6.996;2023-10-08T11:13:57;14.90;99.90
39345;DHT22;25061;51.954;6.996;2023-10-08T11:16:26;14.80;99.90
39345;DHT22;25061;51.954;6.996;2023-10-08T11:18:53;15.10;99.90
39345;DHT22;25061;51.954;6.996;2023-10-08T11:21:23;14.90;99.90
39345;DHT22;25061;51.954;6.996;2023-10-08T11:23:51;14.80;99.90
39345;DHT22;25061;51.954;6.996;2023-10-08T11:26:22;14.80;99.90
39345;DHT22;25061;51.954;6.996;2023-10-08T11:28:59;15.20;99.90
39345;DHT22;25061;51.954;6.996;2023-10-08T11:31:29;14.90;99.90
39345;DHT22;25061;51.954;6.996;2023-10-08T11:34:02;14.70;99.90
39345;DHT22;25061;51.954;6.996;2023-10-08T11:36:39;14.90;99.90
39345;DHT22;25061;51.954;6.996;2023-10-08T11:39:19;15.40;99.90
39345;DHT22;25061;51.954;6.996;2023-10-08T11:42:01;15.30;99.90
39345;DHT22;25061;51.954;6.996;2023-10-08T11:44:32;14.80;99.90
39345;DHT22;25061;51.954;6.996;2023-10-08T11:47:02;14.80;99.90
39345;DHT22;25061;51.954;6.996;2023-10-08T11:49:46;15.20;99.90
39345;DHT22;25061;51.954;6.996;2023-10-08T11:52:34;14.80;99.90
39345;DHT22;25061;51.954;6.996;2023-10-08T11:55:01;14.80;99.90
39345;DHT22;25061;51.954;6.996;2023-10-08T11:57:27;15.40;99.90
39345;DHT22;25061;51.954;6.996;2023-10-08T11:59:52;15.00;99.90
39345;DHT22;25061;51.954;6.996;2023-10-08T12:02:19;15.30;99.90
39345;DHT22;25061;51.954;6.996;2023-10-08T12:04:46;15.30;99.90
39345;DHT22;25061;51.954;6.996;2023-10-08T12:07:14;14.90;99.90
39345;DHT22;25061;51.954;6.996;2023-10-08T12:09:43;14.90;99.90
39345;DHT22;25061;51.954;6.996;2023-10-08T12:12:09;15.00;99.90
39345;DHT22;25061;51.954;6.996;2023-10-08T12:14:37;15.10;99.90
39345;DHT22;25061;51.954;6.996;2023-10-08T12:17:03;15.40;99.90
39345;DHT22;25061;51.954;6.996;2023-10-08T12:19:37;15.40;99.90
39345;DHT22;25061;51.954;6.996;2023-10-08T12:22:05;14.90;99.90
39345;DHT22;25061;51.954;6.996;2023-10-08T12:24:33;15.30;99.90
39345;DHT22;25061;51.954;6.996;2023-10-08T12:26:59;15.30;99.90
39345;DHT22;25061;51.954;6.996;2023-10-08T12:29:24;15.70;99.90
39345;DHT22;25061;51.954;6.996;2023-10-08T12:31:51;15.60;99.90
39345;DHT22;25061;51.954;6.996;2023-10-08T12:34:18;15.30;99.90
39345;DHT22;25061;51.954;6.996;2023-10-08T12:36:44;15.10;99.90
39345;DHT22;25061;51.954;6.996;2023-10-08T12:39:13;15.20;99.90
39345;DHT22;25061;51.954;6.996;2023-10-08T12:41:42;15.20;99.90
39345;DHT22;25061;51.954;6.996;2023-10-08T12:44:09;15.10;99.90
39345;DHT22;25061;51.954;6.996;2023-10-08T12:46:35;14.80;99.90
39345;DHT22;25061;51.954;6.996;2023-10-08T12:49:02;14.80;99.90
39345;DHT22;25061;51.954;6.996;2023-10-08T12:51:28;14.70;99.90
39345;DHT22;25061;51.954;6.996;2023-10-08T12:53:59;14.50;99.90
39345;DHT22;25061;51.954;6.996;2023-10-08T12:56:36;14.60;99.90
39345;DHT22;25061;51.954;6.996;2023-10-08T12:59:11;14.60;99.90
39345;DHT22;25061;51.954;6.996;2023-10-08T13:01:49;14.60;99.90
39345;DHT22;25061;51.954;6.996;2023-10-08T13:04:20;14.60;99.90
39345;DHT22;25061;51.954;6.996;2023-10-08T13:06:56;14.70;99.90
39345;DHT22;25061;51.954;6.996;2023-10-08T13:09:23;14.50;99.90
39345;DHT22;25061;51.954;6.996;2023-10-08T13:11:49;14.50;99.90
39345;DHT22;25061;51.954;6.996;2023-10-08T13:14:15;14.40;99.90
39345;DHT22;25061;51.954;6.996;2023-10-08T13:16:41;14.80;99.90
39345;DHT22;25061;51.954;6.996;2023-10-08T13:19:07;14.80;99.90
39345;DHT22;25061;51.954;6.996;2023-10-08T13:21:34;14.70;99.90
39345;DHT22;25061;51.954;6.996;2023-10-08T13:24:02;14.50;99.90
39345;DHT22;25061;51.954;6.996;2023-10-08T13:26:29;14.50;99.90
39345;DHT22;25061;51.954;6.996;2023-10-08T13:28:57;14.50;99.90
39345;DHT22;25061;51.954;6.996;2023-10-08T13:31:24;14.40;99.90
39345;DHT22;25061;51.954;6.996;2023-10-08T13:33:50;14.30;99.90
39345;DHT22;25061;51.954;6.996;2023-10-08T13:36:18;14.40;99.90
39345;DHT22;25061;51.954;6.996;2023-10-08T13:38:44;14.50;99.90
39345;DHT22;25061;51.954;6.996;2023-10-08T13:41:12;14.60;99.90
39345;DHT22;25061;51.954;6.996;2023-10-08T13:43:42;14.40;99.90
39345;DHT22;25061;51.954;6.996;2023-10-08T13:46:11;14.40;99.90
39345;DHT22;25061;51.954;6.996;2023-10-08T13:48:41;14.30;99.90
39345;DHT22;25061;51.954;6.996;2023-10-08T13:51:08;14.40;99.90
39345;DHT22;25061;51.954;6.996;2023-10-08T13:53:40;14.40;99.90
39345;DHT22;25061;51.954;6.996;2023-10-08T13:56:06;14.30;99.90
39345;DHT22;25061;51.954;6.996;2023-10-08T13:58:32;14.40;99.90
39345;DHT22;25061;51.954;6.996;2023-10-08T14:01:01;14.60;99.90
39345;DHT22;25061;51.954;6.996;2023-10-08T14:03:30;14.60;99.90
39345;DHT22;25061;51.954;6.996;2023-10-08T14:05:59;14.80;99.90
39345;DHT22;25061;51.954;6.996;2023-10-08T14:08:30;14.70;99.90
39345;DHT22;25061;51.954;6.996;2023-10-08T14:10:56;14.50;99.90
39345;DHT22;25061;51.954;6.996;2023-10-08T14:13:31;14.40;99.90
39345;DHT22;25061;51.954;6.996;2023-10-08T14:16:01;14.50;99.90
39345;DHT22;25061;51.954;6.996;2023-10-08T14:18:33;14.30;99.90
39345;DHT22;25061;51.954;6.996;2023-10-08T14:21:07;14.40;99.90
39345;DHT22;25061;51.954;6.996;2023-10-08T14:23:36;14.40;99.90
39345;DHT22;25061;51.954;6.996;2023-10-08T14:26:08;14.40;99.90
39345;DHT22;25061;51.954;6.996;2023-10-08T14:28:35;14.30;99.90
39345;DHT22;25061;51.954;6.996;2023-10-08T14:31:16;14.40;99.90
39345;DHT22;25061;51.954;6.996;2023-10-08T14:33:44;14.30;99.90
39345;DHT22;25061;51.954;6.996;2023-10-08T14:36:34;14.40;99.90
39345;DHT22;25061;51.954;6.996;2023-10-08T14:39:19;14.60;99.90
39345;DHT22;25061;51.954;6.996;2023-10-08T14:42:03;14.40;99.90
39345;DHT22;25061;51.954;6.996;2023-10-08T14:44:48;14.40;99.90
39345;DHT22;25061;51.954;6.996;2023-10-08T14:47:16;14.40;99.90
39345;DHT22;25061;51.954;6.996;2023-10-08T14:49:42;14.30;99.90
39345;DHT22;25061;51.954;6.996;2023-10-08T14:52:11;14.10;99.90
39345;DHT22;25061;51.954;6.996;2023-10-08T14:54:37;14.10;99.90
39345;DHT22;25061;51.954;6.996;2023-10-08T14:57:03;14.20;99.90
39345;DHT22;25061;51.954;6.996;2023-10-08T14:59:31;14.20;99.90
39345;DHT22;25061;51.954;6.996;2023-10-08T15:01:57;14.20;99.90
39345;DHT22;25061;51.954;6.996;2023-10-08T15:04:24;14.20;99.90
39345;DHT22;25061;51.954;6.996;2023-10-08T15:06:51;14.20;99.90
39345;DHT22;25061;51.954;6.996;2023-10-08T15:09:17;14.20;99.90
39345;DHT22;25061;51.954;6.996;2023-10-08T15:11:52;14.20;99.90
39345;DHT22;25061;51.954;6.996;2023-10-08T15:14:21;14.20;99.90
39345;DHT22;25061;51.954;6.996;2023-10-08T15:16:50;14.20;99.90
39345;DHT22;25061;51.954;6.996;2023-10-08T15:19:20;14.40;99.90
39345;DHT22;25061;51.954;6.996;2023-10-08T15:21:48;14.40;99.90
39345;DHT22;25061;51.954;6.996;2023-10-08T15:24:22;14.40;99.90
39345;DHT22;25061;51.954;6.996;2023-10-08T15:26:49;14.20;99.90
39345;DHT22;25061;51.954;6.996;2023-10-08T15:29:16;14.10;99.90
39345;DHT22;25061;51.954;6.996;2023-10-08T15:31:42;14.00;99.90
39345;DHT22;25061;51.954;6.996;2023-10-08T15:34:08;14.10;99.90
39345;DHT22;25061;51.954;6.996;2023-10-08T15:36:34;14.10;99.90
39345;DHT22;25061;51.954;6.996;2023-10-08T15:38:59;14.00;99.90
39345;DHT22;25061;51.954;6.996;2023-10-08T15:41:25;14.10;99.90
39345;DHT22;25061;51.954;6.996;2023-10-08T15:43:51;14.10;99.90
39345;DHT22;25061;51.954;6.996;2023-10-08T15:46:19;14.10;99.90
39345;DHT22;25061;51.954;6.996;2023-10-08T15:48:45;13.90;99.90
39345;DHT22;25061;51.954;6.996;2023-10-08T15:51:11;13.90;99.90
39345;DHT22;25061;51.954;6.996;2023-10-08T15:53:37;13.90;99.90
39345;DHT22;25061;51.954;6.996;2023-10-08T15:56:05;14.00;99.90
39345;DHT22;25061;51.954;6.996;2023-10-08T15:58:30;13.90;99.90
39345;DHT22;25061;51.954;6.996;2023-10-08T16:00:56;13.90;99.90
39345;DHT22;25061;51.954;6.996;2023-10-08T16:03:21;13.90;99.90
39345;DHT22;25061;51.954;6.996;2023-10-08T16:05:47;13.90;99.90
39345;DHT22;25061;51.954;6.996;2023-10-08T16:08:14;13.90;99.90
39345;DHT22;25061;51.954;6.996;2023-10-08T16:10:40;13.90;99.90
39345;DHT22;25061;51.954;6.996;2023-10-08T16:13:05;13.90;99.90
39345;DHT22;25061;51.954;6.996;2023-10-08T16:15:33;13.80;99.90
39345;DHT22;25061;51.954;6.996;2023-10-08T16:17:58;13.80;99.90
39345;DHT22;25061;51.954;6.996;2023-10-08T16:20:24;13.70;99.90
39345;DHT22;25061;51.954;6.996;2023-10-08T16:22:52;13.70;99.90
39345;DHT22;25061;51.954;6.996;2023-10-08T16:25:18;13.70;99.90
39345;DHT22;25061;51.954;6.996;2023-10-08T16:27:45;13.70;99.90
39345;DHT22;25061;51.954;6.996;2023-10-08T16:30:25;13.70;99.90
39345;DHT22;25061;51.954;6.996;2023-10-08T16:32:54;13.70;99.90
39345;DHT22;25061;51.954;6.996;2023-10-08T16:35:21;13.60;99.90
39345;DHT22;25061;51.954;6.996;2023-10-08T16:37:50;13.60;99.90
39345;DHT22;25061;51.954;6.996;2023-10-08T16:40:16;13.70;99.90
39345;DHT22;25061;51.954;6.996;2023-10-08T16:42:41;13.70;99.90
39345;DHT22;25061;51.954;6.996;2023-10-08T16:45:07;13.60;99.90
39345;DHT22;25061;51.954;6.996;2023-10-08T16:47:35;13.60;99.90
39345;DHT22;25061;51.954;6.996;2023-10-08T16:50:01;13.60;99.90
39345;DHT22;25061;51.954;6.996;2023-10-08T16:52:27;13.70;99.90
39345;DHT22;25061;51.954;6.996;2023-10-08T16:54:54;13.60;99.90
39345;DHT22;25061;51.954;6.996;2023-10-08T16:57:20;13.60;99.90
39345;DHT22;25061;51.954;6.996;2023-10-08T16:59:47;13.60;99.90
39345;DHT22;25061;51.954;6.996;2023-10-08T17:02:13;13.60;99.90
39345;DHT22;25061;51.954;6.996;2023-10-08T17:04:38;13.60;99.90
39345;DHT22;25061;51.954;6.996;2023-10-08T17:07:04;13.50;99.90
39345;DHT22;25061;51.954;6.996;2023-10-08T17:09:30;13.50;99.90
39345;DHT22;25061;51.954;6.996;2023-10-08T17:11:56;13.50;99.90
39345;DHT22;25061;51.954;6.996;2023-10-08T17:14:22;13.50;99.90
39345;DHT22;25061;51.954;6.996;2023-10-08T17:16:49;13.50;99.90
39345;DHT22;25061;51.954;6.996;2023-10-08T17:19:15;13.50;99.90
39345;DHT22;25061;51.954;6.996;2023-10-08T17:21:44;13.50;99.90
39345;DHT22;25061;51.954;6.996;2023-10-08T17:24:10;13.40;99.90
39345;DHT22;25061;51.954;6.996;2023-10-08T17:26:36;13.50;99.90
39345;DHT22;25061;51.954;6.996;2023-10-08T17:29:03;13.40;99.90
39345;DHT22;25061;51.954;6.996;2023-10-08T17:31:29;13.50;99.90
39345;DHT22;25061;51.954;6.996;2023-10-08T17:33:59;13.50;99.90
39345;DHT22;25061;51.954;6.996;2023-10-08T17:36:29;13.40;99.90
39345;DHT22;25061;51.954;6.996;2023-10-08T17:38:58;13.40;99.90
39345;DHT22;25061;51.954;6.996;2023-10-08T17:41:34;13.50;99.90
39345;DHT22;25061;51.954;6.996;2023-10-08T17:44:00;13.40;99.90
39345;DHT22;25061;51.954;6.996;2023-10-08T17:46:26;13.40;99.90
39345;DHT22;25061;51.954;6.996;2023-10-08T17:48:52;13.40;99.90
39345;DHT22;25061;51.954;6.996;2023-10-08T17:51:19;13.40;99.90
39345;DHT22;25061;51.954;6.996;2023-10-08T17:53:44;13.40;99.90
39345;DHT22;25061;51.954;6.996;2023-10-08T17:56:10;13.40;99.90
39345;DHT22;25061;51.954;6.996;2023-10-08T17:58:36;13.40;99.90
39345;DHT22;25061;51.954;6.996;2023-10-08T18:01:13;13.40;99.90
39345;DHT22;25061;51.954;6.996;2023-10-08T18:03:45;13.40;99.90
39345;DHT22;25061;51.954;6.996;2023-10-08T18:06:13;13.40;99.90
39345;DHT22;25061;51.954;6.996;2023-10-08T18:08:46;13.40;99.90
39345;DHT22;25061;51.954;6.996;2023-10-08T18:11:16;13.40;99.90
39345;DHT22;25061;51.954;6.996;2023-10-08T18:13:45;13.30;99.90
39345;DHT22;25061;51.954;6.996;2023-10-08T18:16:12;13.30;99.90
39345;DHT22;25061;51.954;6.996;2023-10-08T18:18:40;13.30;99.90
39345;DHT22;25061;51.954;6.996;2023-10-08T18:21:07;13.30;99.90
39345;DHT22;25061;51.954;6.996;2023-10-08T18:23:41;13.30;99.90
39345;DHT22;25061;51.954;6.996;2023-10-08T18:26:10;13.30;99.90
39345;DHT22;25061;51.954;6.996;2023-10-08T18:28:37;13.30;99.90
39345;DHT22;25061;51.954;6.996;2023-10-08T18:31:07;13.30;99.90
39345;DHT22;25061;51.954;6.996;2023-10-08T18:33:37;13.30;99.90
39345;DHT22;25061;51.954;6.996;2023-10-08T18:36:10;13.30;99.90
39345;DHT22;25061;51.954;6.996;2023-10-08T18:38:37;13.40;99.90
39345;DHT22;25061;51.954;6.996;2023-10-08T18:41:05;13.30;99.90
39345;DHT22;25061;51.954;6.996;2023-10-08T18:43:33;13.30;99.90
39345;DHT22;25061;51.954;6.996;2023-10-08T18:45:59;13.30;99.90
39345;DHT22;25061;51.954;6.996;2023-10-08T18:48:25;13.30;99.90
39345;DHT22;25061;51.954;6.996;2023-10-08T18:50:52;13.40;99.90
39345;DHT22;25061;51.954;6.996;2023-10-08T18:53:19;13.30;99.90
39345;DHT22;25061;51.954;6.996;2023-10-08T18:55:44;13.30;99.90
39345;DHT22;25061;51.954;6.996;2023-10-08T18:58:10;13.30;99.90
39345;DHT22;25061;51.954;6.996;2023-10-08T19:00:36;13.30;99.90
39345;DHT22;25061;51.954;6.996;2023-10-08T19:03:04;13.30;99.90
39345;DHT22;25061;51.954;6.996;2023-10-08T19:05:30;13.30;99.90
39345;DHT22;25061;51.954;6.996;2023-10-08T19:07:55;13.20;99.90
39345;DHT22;25061;51.954;6.996;2023-10-08T19:10:21;13.20;99.90
39345;DHT22;25061;51.954;6.996;2023-10-08T19:12:47;13.20;99.90
39345;DHT22;25061;51.954;6.996;2023-10-08T19:15:14;13.10;99.90
39345;DHT22;25061;51.954;6.996;2023-10-08T19:17:42;13.10;99.90
39345;DHT22;25061;51.954;6.996;2023-10-08T19:20:14;13.10;99.90
39345;DHT22;25061;51.954;6.996;2023-10-08T19:22:42;13.10;99.90
39345;DHT22;25061;51.954;6.996;2023-10-08T19:25:08;13.10;99.90
39345;DHT22;25061;51.954;6.996;2023-10-08T19:27:38;13.10;99.90
39345;DHT22;25061;51.954;6.996;2023-10-08T19:30:04;13.10;99.90
39345;DHT22;25061;51.954;6.996;2023-10-08T19:32:34;13.10;99.90
39345;DHT22;25061;51.954;6.996;2023-10-08T19:35:02;13.10;99.90
39345;DHT22;25061;51.954;6.996;2023-10-08T19:37:29;13.10;99.90
39345;DHT22;25061;51.954;6.996;2023-10-08T19:39:54;13.10;99.90
39345;DHT22;25061;51.954;6.996;2023-10-08T19:42:21;13.00;99.90
39345;DHT22;25061;51.954;6.996;2023-10-08T19:44:52;13.00;99.90
39345;DHT22;25061;51.954;6.996;2023-10-08T19:47:17;13.00;99.90
39345;DHT22;25061;51.954;6.996;2023-10-08T19:49:43;13.00;99.90
39345;DHT22;25061;51.954;6.996;2023-10-08T19:52:09;13.00;99.90
39345;DHT22;25061;51.954;6.996;2023-10-08T19:54:35;13.00;99.90
39345;DHT22;25061;51.954;6.996;2023-10-08T19:57:01;13.00;99.90
39345;DHT22;25061;51.954;6.996;2023-10-08T19:59:27;13.00;99.90
39345;DHT22;25061;51.954;6.996;2023-10-08T20:01:53;13.00;99.90
39345;DHT22;25061;51.954;6.996;2023-10-08T20:04:19;13.00;99.90
39345;DHT22;25061;51.954;6.996;2023-10-08T20:06:45;12.90;99.90
39345;DHT22;25061;51.954;6.996;2023-10-08T20:09:11;13.00;99.90
39345;DHT22;25061;51.954;6.996;2023-10-08T20:11:36;12.90;99.90
39345;DHT22;25061;51.954;6.996;2023-10-08T20:14:03;13.00;99.90
39345;DHT22;25061;51.954;6.996;2023-10-08T20:16:29;12.90;99.90
39345;DHT22;25061;51.954;6.996;2023-10-08T20:18:56;12.90;99.90
39345;DHT22;25061;51.954;6.996;2023-10-08T20:21:22;12.90;99.90
39345;DHT22;25061;51.954;6.996;2023-10-08T20:23:47;12.90;99.90
39345;DHT22;25061;51.954;6.996;2023-10-08T20:26:16;12.80;99.90
39345;DHT22;25061;51.954;6.996;2023-10-08T20:28:47;12.80;99.90
39345;DHT22;25061;51.954;6.996;2023-10-08T20:31:16;12.90;99.90
39345;DHT22;25061;51.954;6.996;2023-10-08T20:33:43;12.80;99.90
39345;DHT22;25061;51.954;6.996;2023-10-08T20:36:09;12.80;99.90
39345;DHT22;25061;51.954;6.996;2023-10-08T20:38:36;12.80;99.90
39345;DHT22;25061;51.954;6.996;2023-10-08T20:41:02;12.80;99.90
39345;DHT22;25061;51.954;6.996;2023-10-08T20:43:31;12.70;99.90
39345;DHT22;25061;51.954;6.996;2023-10-08T20:45:58;12.70;99.90
39345;DHT22;25061;51.954;6.996;2023-10-08T20:48:26;12.70;99.90
39345;DHT22;25061;51.954;6.996;2023-10-08T20:50:54;12.70;99.90
39345;DHT22;25061;51.954;6.996;2023-10-08T20:53:20;12.70;99.90
39345;DHT22;25061;51.954;6.996;2023-10-08T20:55:47;12.80;99.90
39345;DHT22;25061;51.954;6.996;2023-10-08T20:58:13;12.70;99.90
39345;DHT22;25061;51.954;6.996;2023-10-08T21:00:43;12.60;99.90
39345;DHT22;25061;51.954;6.996;2023-10-08T21:03:10;12.60;99.90
39345;DHT22;25061;51.954;6.996;2023-10-08T21:05:37;12.60;99.90
39345;DHT22;25061;51.954;6.996;2023-10-08T21:08:07;12.60;99.90
39345;DHT22;25061;51.954;6.996;2023-10-08T21:10:37;12.60;99.90
39345;DHT22;25061;51.954;6.996;2023-10-08T21:13:05;12.60;99.90
39345;DHT22;25061;51.954;6.996;2023-10-08T21:15:32;12.70;99.90
39345;DHT22;25061;51.954;6.996;2023-10-08T21:18:04;12.70;99.90
39345;DHT22;25061;51.954;6.996;2023-10-08T21:20:31;12.60;99.90